Time;durP1;ratioP1;P1;durP2;ratioP2;P2;SDS_P1;SDS_P2;PMS_P1;PMS_P2;Temp;Humidity;BMP_temperature;BMP_pressure;BME280_temperature;BME280_humidity;BME280_pressure;Samples;Min_cycle;Max_cycle;Signal;HPM_P1;HPM_P2
2021/04/07 00:01:37;;;;;;;10.30;1.40;;;1.80;99.90;;;;;;5076127;28;20043;-69
2021/04/07 00:04:02;;;;;;;1.45;0.55;;;1.90;99.90;;;;;;5075871;28;20476;-70
2021/04/07 00:06:28;;;;;;;4.63;1.00;;;2.00;99.90;;;;;;5074715;28;20024;-70
2021/04/07 00:08:53;;;;;;;8.30;2.00;;;1.90;99.90;;;;;;5075850;28;20032;-70
2021/04/07 00:11:19;;;;;;;12.13;1.35;;;1.80;99.90;;;;;;5075198;28;20070;-69
2021/04/07 00:13:45;;;;;;;4.65;0.82;;;1.60;99.90;;;;;;5074978;28;20036;-70
2021/04/07 00:16:11;;;;;;;6.78;1.10;;;1.50;99.90;;;;;;5075260;28;20024;-70
2021/04/07 00:18:37;;;;;;;9.27;1.17;;;1.40;99.90;;;;;;5075213;28;20100;-70
2021/04/07 00:21:03;;;;;;;12.93;1.52;;;1.20;99.90;;;;;;5073139;28;20036;-68
2021/04/07 00:23:29;;;;;;;3.08;1.10;;;1.20;99.90;;;;;;5063370;28;20012;-69
2021/04/07 00:25:55;;;;;;;9.32;1.70;;;1.10;99.90;;;;;;5075311;28;20498;-70
2021/04/07 00:28:21;;;;;;;14.52;0.90;;;1.00;99.90;;;;;;5076158;28;20024;-71
2021/04/07 00:30:48;;;;;;;13.90;1.45;;;0.90;99.90;;;;;;5075351;28;20483;-69
2021/04/07 00:33:15;;;;;;;4.75;0.90;;;0.80;99.90;;;;;;5074682;28;20060;-70
2021/04/07 00:35:40;;;;;;;12.43;1.83;;;0.80;99.90;;;;;;5075047;28;20021;-70
2021/04/07 00:38:06;;;;;;;9.57;1.25;;;0.70;99.90;;;;;;5074458;28;20050;-69
2021/04/07 00:40:32;;;;;;;9.50;1.98;;;0.70;99.90;;;;;;5074154;28;20056;-70
2021/04/07 00:43:00;;;;;;;5.25;1.15;;;0.60;99.90;;;;;;5075097;28;20032;-70
2021/04/07 00:45:26;;;;;;;9.38;1.55;;;0.60;99.90;;;;;;5073122;28;20032;-70
2021/04/07 00:47:53;;;;;;;13.82;1.80;;;0.60;99.90;;;;;;5074236;28;20043;-71
2021/04/07 00:50:21;;;;;;;8.02;1.30;;;0.60;99.90;;;;;;5074292;28;20025;-71
2021/04/07 00:52:47;;;;;;;18.30;1.77;;;0.70;99.90;;;;;;5074997;28;20027;-69
2021/04/07 00:55:13;;;;;;;15.50;2.05;;;0.70;99.90;;;;;;5073762;28;20032;-71
2021/04/07 00:57:42;;;;;;;11.32;1.33;;;0.70;99.90;;;;;;5074790;28;20476;-70
2021/04/07 01:00:10;;;;;;;8.43;1.58;;;0.80;99.90;;;;;;5074424;28;20037;-69
2021/04/07 01:02:36;;;;;;;19.75;3.13;;;0.80;99.90;;;;;;5073509;28;20114;-69
2021/04/07 01:05:03;;;;;;;12.40;2.58;;;0.90;99.90;;;;;;5074697;28;20114;-70
2021/04/07 01:07:29;;;;;;;10.02;1.13;;;0.90;99.90;;;;;;5073907;28;20132;-70
2021/04/07 01:09:55;;;;;;;18.77;1.92;;;0.90;99.90;;;;;;5073964;28;20032;-70
2021/04/07 01:12:20;;;;;;;23.20;2.30;;;0.90;99.90;;;;;;5074186;28;20020;-70
2021/04/07 01:14:46;;;;;;;11.40;1.65;;;1.00;99.90;;;;;;5074762;28;20024;-70
2021/04/07 01:17:12;;;;;;;14.50;1.50;;;1.00;99.90;;;;;;5073609;28;20025;-70
2021/04/07 01:19:38;;;;;;;6.38;1.50;;;1.10;99.90;;;;;;5074010;28;20391;-70
2021/04/07 01:22:05;;;;;;;10.13;1.25;;;1.30;99.90;;;;;;5074217;28;20021;-71
2021/04/07 01:24:32;;;;;;;9.88;1.38;;;1.40;99.90;;;;;;5071716;28;20499;-69
2021/04/07 01:26:58;;;;;;;5.22;0.90;;;1.50;99.90;;;;;;5069942;28;20037;-69
2021/04/07 01:29:23;;;;;;;7.25;1.10;;;1.50;99.90;;;;;;5064612;28;20035;-70
2021/04/07 01:31:51;;;;;;;10.50;1.83;;;1.50;99.90;;;;;;5073513;28;20108;-70
2021/04/07 01:34:20;;;;;;;3.17;0.70;;;1.50;99.90;;;;;;5074085;28;20044;-70
2021/04/07 01:36:45;;;;;;;6.97;0.63;;;1.50;99.90;;;;;;5073442;28;20021;-69
2021/04/07 01:39:11;;;;;;;7.40;1.60;;;1.50;99.90;;;;;;5073881;28;20028;-70
2021/04/07 01:41:38;;;;;;;4.78;1.33;;;1.40;99.90;;;;;;5074260;28;20499;-69
2021/04/07 01:44:05;;;;;;;4.95;1.00;;;1.40;99.90;;;;;;5073095;28;20472;-70
2021/04/07 01:46:32;;;;;;;1.98;0.70;;;1.40;99.90;;;;;;5074133;28;20044;-70
2021/04/07 01:48:57;;;;;;;6.75;0.95;;;1.40;99.90;;;;;;5073876;28;20017;-70
2021/04/07 01:51:23;;;;;;;6.93;1.10;;;1.30;99.90;;;;;;5072998;28;20352;-69
2021/04/07 01:53:48;;;;;;;2.38;0.70;;;1.40;99.90;;;;;;5073962;28;20048;-70
2021/04/07 01:56:14;;;;;;;7.60;1.20;;;1.40;99.90;;;;;;5073553;28;20537;-70
2021/04/07 01:58:40;;;;;;;6.43;0.95;;;1.40;99.90;;;;;;5073271;28;20070;-70
2021/04/07 02:01:05;;;;;;;5.03;0.98;;;1.50;99.90;;;;;;5072558;28;20028;-71
2021/04/07 02:03:31;;;;;;;8.90;1.45;;;1.40;99.90;;;;;;5073463;28;20072;-70
2021/04/07 02:05:56;;;;;;;4.28;0.80;;;1.50;99.90;;;;;;5064321;28;20041;-70
2021/04/07 02:08:22;;;;;;;7.90;0.75;;;1.40;99.90;;;;;;5053951;28;20025;-71
2021/04/07 02:10:47;;;;;;;4.70;0.88;;;1.30;99.90;;;;;;5073719;28;20026;-70
2021/04/07 02:13:13;;;;;;;4.85;0.80;;;1.30;99.90;;;;;;5072446;28;20104;-70
2021/04/07 02:15:38;;;;;;;10.75;0.95;;;1.20;99.90;;;;;;5073701;28;20024;-70
2021/04/07 02:18:04;;;;;;;5.57;0.80;;;1.20;99.90;;;;;;5072940;28;20017;-71
2021/04/07 02:20:30;;;;;;;9.00;0.90;;;1.20;99.90;;;;;;5072214;28;20070;-70
2021/04/07 02:22:55;;;;;;;8.23;1.33;;;1.20;99.90;;;;;;5073435;28;20023;-69
2021/04/07 02:25:21;;;;;;;9.43;1.33;;;1.20;99.90;;;;;;5072985;28;20037;-71
2021/04/07 02:27:46;;;;;;;12.15;1.25;;;1.30;99.90;;;;;;5072510;28;20376;-71
2021/04/07 02:30:16;;;;;;;6.97;1.30;;;1.30;99.90;;;;;;5073002;28;20024;-70
2021/04/07 02:32:42;;;;;;;11.73;1.08;;;1.30;99.90;;;;;;5073140;28;20028;-71
2021/04/07 02:35:08;;;;;;;22.17;1.83;;;1.30;99.90;;;;;;5071800;28;20048;-72
2021/04/07 02:37:34;;;;;;;13.38;1.52;;;1.30;99.90;;;;;;5072827;28;20471;-70
2021/04/07 02:40:00;;;;;;;11.57;1.35;;;1.30;99.90;;;;;;5072340;28;20039;-69
2021/04/07 02:42:26;;;;;;;14.02;2.63;;;1.30;99.90;;;;;;5072735;28;20028;-70
2021/04/07 02:44:51;;;;;;;10.90;1.50;;;1.30;99.90;;;;;;5072790;28;20033;-70
2021/04/07 02:47:17;;;;;;;18.23;2.05;;;1.40;99.90;;;;;;5071713;28;20024;-70
2021/04/07 02:49:45;;;;;;;12.93;2.33;;;1.40;99.90;;;;;;5072893;28;20480;-70
2021/04/07 02:52:10;;;;;;;16.27;1.98;;;1.60;99.90;;;;;;5072502;28;20048;-70
2021/04/07 02:54:36;;;;;;;18.90;3.30;;;1.80;99.90;;;;;;5072329;28;20056;-70
2021/04/07 02:57:05;;;;;;;16.88;2.08;;;2.10;99.90;;;;;;5072740;28;20112;-69
2021/04/07 02:59:32;;;;;;;19.80;3.17;;;2.40;99.90;;;;;;5072641;28;20024;-71
2021/04/07 03:01:57;;;;;;;12.20;1.90;;;2.60;99.90;;;;;;5071746;28;20106;-70
2021/04/07 03:04:23;;;;;;;18.92;1.85;;;2.60;99.90;;;;;;5054120;28;20405;-70
2021/04/07 03:06:48;;;;;;;6.93;1.08;;;2.60;99.90;;;;;;5072513;28;20085;-71
2021/04/07 03:09:14;;;;;;;13.13;1.50;;;2.60;99.90;;;;;;5070898;28;20040;-69
2021/04/07 03:11:40;;;;;;;13.13;1.85;;;2.50;99.90;;;;;;5071729;28;20123;-70
2021/04/07 03:14:06;;;;;;;18.25;2.78;;;2.50;99.90;;;;;;5072136;28;20419;-70
2021/04/07 03:16:32;;;;;;;7.68;1.00;;;2.50;99.90;;;;;;5071771;28;20379;-70
2021/04/07 03:18:58;;;;;;;8.40;1.70;;;2.50;99.90;;;;;;5072393;28;20027;-69
2021/04/07 03:21:24;;;;;;;7.88;1.70;;;2.40;99.90;;;;;;5072007;28;20024;-70
2021/04/07 03:23:49;;;;;;;8.38;1.50;;;2.20;99.90;;;;;;5071461;28;20028;-70
2021/04/07 03:26:15;;;;;;;13.38;1.83;;;2.20;99.90;;;;;;5071905;28;20051;-70
2021/04/07 03:28:41;;;;;;;11.63;1.33;;;2.10;99.90;;;;;;5064107;28;20020;-70
2021/04/07 03:31:06;;;;;;;12.15;2.22;;;2.00;99.90;;;;;;5051628;28;20029;-71
2021/04/07 03:33:35;;;;;;;7.22;1.20;;;2.00;99.90;;;;;;5071829;28;20104;-70
2021/04/07 03:36:01;;;;;;;13.10;2.17;;;2.00;99.90;;;;;;5072224;28;20028;-71
2021/04/07 03:38:27;;;;;;;13.15;1.88;;;2.00;99.90;;;;;;5071127;28;20103;-70
2021/04/07 03:40:53;;;;;;;10.48;1.50;;;1.80;99.90;;;;;;5072098;28;20159;-71
2021/04/07 03:43:21;;;;;;;15.48;3.30;;;1.80;99.90;;;;;;5070933;28;20019;-70
2021/04/07 03:45:49;;;;;;;16.83;1.92;;;1.80;99.90;;;;;;5071949;28;20090;-70
2021/04/07 03:48:16;;;;;;;4.75;1.75;;;1.80;99.90;;;;;;5071497;28;20097;-70
2021/04/07 03:50:43;;;;;;;5.50;1.40;;;1.70;99.90;;;;;;5071147;28;20028;-71
2021/04/07 03:53:10;;;;;;;5.07;0.73;;;1.80;99.90;;;;;;5071258;28;20805;-71
2021/04/07 03:55:36;;;;;;;5.57;1.17;;;1.70;99.90;;;;;;5071831;28;20035;-70
2021/04/07 03:58:02;;;;;;;4.70;1.10;;;1.70;99.90;;;;;;5071019;28;20060;-71
2021/04/07 04:00:28;;;;;;;8.63;1.90;;;2.10;99.90;;;;;;5071482;28;20055;-70
2021/04/07 04:02:54;;;;;;;6.05;1.15;;;1.70;99.90;;;;;;5071551;28;20132;-71
2021/04/07 04:05:20;;;;;;;13.20;1.02;;;1.70;99.90;;;;;;5070790;28;20127;-70
2021/04/07 04:07:45;;;;;;;8.38;2.00;;;1.70;99.90;;;;;;5071871;28;20078;-70
2021/04/07 04:10:12;;;;;;;4.47;1.30;;;1.70;99.90;;;;;;5071576;28;20021;-70
2021/04/07 04:12:38;;;;;;;3.70;1.25;;;1.70;99.90;;;;;;5070921;28;20522;-70
2021/04/07 04:15:05;;;;;;;4.55;0.88;;;1.80;99.90;;;;;;5071651;28;20028;-70
2021/04/07 04:17:30;;;;;;;5.38;1.00;;;1.70;99.90;;;;;;5071481;28;20035;-70
2021/04/07 04:19:56;;;;;;;8.45;1.52;;;1.60;99.90;;;;;;5070951;28;20088;-71
2021/04/07 04:22:21;;;;;;;13.70;1.83;;;1.60;99.90;;;;;;5071495;28;20043;-71
2021/04/07 04:24:47;;;;;;;10.82;1.70;;;1.60;99.90;;;;;;5071437;28;20033;-69
2021/04/07 04:27:13;;;;;;;13.23;1.45;;;1.50;99.90;;;;;;5070664;28;20451;-70
2021/04/07 04:29:38;;;;;;;15.60;2.20;;;1.50;99.90;;;;;;5071416;28;20388;-71
2021/04/07 04:32:05;;;;;;;10.43;1.92;;;1.50;99.90;;;;;;5071248;28;20024;-70
2021/04/07 04:34:31;;;;;;;9.23;1.48;;;1.60;99.90;;;;;;5070847;28;20116;-70
2021/04/07 04:36:56;;;;;;;6.45;1.48;;;1.60;99.90;;;;;;5071756;28;20108;-72
2021/04/07 04:39:22;;;;;;;9.65;1.70;;;1.60;99.90;;;;;;5071474;28;20441;-73
2021/04/07 04:41:48;;;;;;;10.57;1.48;;;1.70;99.90;;;;;;5057629;28;20481;-72
2021/04/07 04:44:13;;;;;;;6.97;1.55;;;1.70;99.90;;;;;;5073946;28;20069;-70
2021/04/07 04:46:39;;;;;;;12.48;1.85;;;1.60;99.90;;;;;;5071807;28;20098;-70
2021/04/07 04:49:04;;;;;;;12.38;1.55;;;1.60;99.90;;;;;;5063364;28;20085;-70
2021/04/07 04:51:30;;;;;;;10.88;2.53;;;1.60;99.90;;;;;;5075047;28;20163;-72
2021/04/07 04:53:55;;;;;;;7.88;2.53;;;1.60;99.90;;;;;;5074613;28;20044;-71
2021/04/07 04:56:21;;;;;;;9.65;1.95;;;1.60;99.90;;;;;;5075175;28;20025;-72
2021/04/07 04:58:46;;;;;;;10.65;1.77;;;1.20;99.90;;;;;;5061090;28;20441;-71
2021/04/07 05:01:12;;;;;;;11.57;2.95;;;1.50;99.90;;;;;;5074143;28;20040;-72
2021/04/07 05:03:38;;;;;;;9.02;2.60;;;1.50;99.90;;;;;;5060467;28;20053;-70
2021/04/07 05:06:04;;;;;;;6.53;2.42;;;1.50;99.90;;;;;;5074722;28;20041;-70
2021/04/07 05:08:29;;;;;;;12.07;2.28;;;1.40;99.90;;;;;;5073838;28;20419;-70
2021/04/07 05:10:55;;;;;;;12.18;2.35;;;1.40;99.90;;;;;;5074865;28;20058;-70
2021/04/07 05:13:23;;;;;;;22.83;4.03;;;1.40;99.90;;;;;;5074304;28;20067;-71
2021/04/07 05:15:49;;;;;;;12.20;3.00;;;1.40;99.90;;;;;;5073700;28;20082;-72
2021/04/07 05:18:17;;;;;;;18.17;3.33;;;1.50;99.90;;;;;;5074731;28;20626;-71
2021/04/07 05:20:45;;;;;;;27.55;3.80;;;1.50;99.90;;;;;;5074644;28;20078;-72
2021/04/07 05:23:14;;;;;;;23.52;2.53;;;1.50;99.90;;;;;;5073256;28;20025;-72
2021/04/07 05:25:39;;;;;;;19.15;3.33;;;1.70;99.90;;;;;;5073289;28;20033;-73
2021/04/07 05:28:06;;;;;;;26.77;3.13;;;1.80;99.90;;;;;;5070150;28;20377;-73
2021/04/07 05:33:19;;;;;;;35.00;5.07;;;2.20;99.90;;;;;;5066326;28;20090;-74
2021/04/07 05:35:44;;;;;;;20.30;3.13;;;2.50;99.90;;;;;;5071846;28;20036;-73
2021/04/07 05:38:10;;;;;;;16.90;2.00;;;2.60;99.90;;;;;;5072613;28;20021;-73
2021/04/07 05:40:35;;;;;;;26.45;3.45;;;2.80;99.90;;;;;;5072334;28;20377;-73
2021/04/07 05:43:02;;;;;;;33.90;5.47;;;2.90;99.90;;;;;;5076540;28;20079;-73
2021/04/07 05:45:28;;;;;;;36.92;4.32;;;3.00;99.90;;;;;;5071135;28;20036;-73
2021/04/07 05:47:53;;;;;;;31.90;4.28;;;3.00;99.90;;;;;;5073203;28;20495;-73
2021/04/07 05:50:19;;;;;;;35.60;4.75;;;3.10;99.90;;;;;;5070962;28;20028;-73
2021/04/07 05:52:48;;;;;;;37.15;4.78;;;3.20;99.90;;;;;;5072871;28;20017;-72
2021/04/07 05:55:13;;;;;;;45.60;5.32;;;3.30;99.90;;;;;;5066506;28;20374;-73
2021/04/07 05:57:39;;;;;;;28.23;3.75;;;3.40;99.90;;;;;;5059459;28;20074;-72
2021/04/07 06:00:05;;;;;;;57.45;9.13;;;3.50;99.90;;;;;;5058427;28;20021;-72
2021/04/07 06:02:31;;;;;;;43.30;4.57;;;3.50;99.90;;;;;;5059676;28;20033;-72
2021/04/07 06:04:56;;;;;;;62.00;6.70;;;3.50;99.90;;;;;;5059907;28;20033;-73
2021/04/07 06:07:22;;;;;;;41.05;5.68;;;3.60;99.90;;;;;;5056437;28;20017;-72
2021/04/07 06:09:47;;;;;;;51.42;5.40;;;3.70;99.90;;;;;;5061145;28;20032;-71
2021/04/07 06:12:13;;;;;;;41.22;5.75;;;3.70;99.90;;;;;;5057750;28;20017;-70
2021/04/07 06:14:38;;;;;;;51.70;5.32;;;3.80;99.90;;;;;;5059518;28;20055;-71
2021/04/07 06:17:04;;;;;;;40.53;5.05;;;3.80;99.90;;;;;;5055908;28;20020;-71
2021/04/07 06:19:29;;;;;;;46.90;5.32;;;3.80;99.90;;;;;;5057695;28;20350;-72
2021/04/07 06:21:55;;;;;;;42.05;5.22;;;3.90;99.90;;;;;;5060367;28;20070;-72
2021/04/07 06:24:20;;;;;;;49.63;4.95;;;4.00;99.90;;;;;;5058863;28;20158;-71
2021/04/07 06:26:46;;;;;;;47.42;6.20;;;4.00;99.90;;;;;;5057240;28;20028;-71
2021/04/07 06:29:11;;;;;;;46.13;4.30;;;4.10;99.90;;;;;;5056424;28;20088;-71
2021/04/07 06:31:37;;;;;;;47.38;7.05;;;4.10;99.90;;;;;;5056884;28;20357;-70
2021/04/07 06:34:02;;;;;;;57.45;6.70;;;4.20;99.90;;;;;;5055039;28;20035;-71
2021/04/07 06:36:28;;;;;;;41.08;6.65;;;4.20;99.90;;;;;;5064191;28;20044;-71
2021/04/07 06:38:53;;;;;;;36.60;6.15;;;4.30;99.90;;;;;;5063739;28;20019;-74
2021/04/07 06:41:19;;;;;;;36.50;5.47;;;4.40;99.90;;;;;;5064770;28;20016;-74
2021/04/07 06:43:48;;;;;;;53.17;5.32;;;4.40;99.90;;;;;;5066398;28;20472;-75
2021/04/07 06:46:18;;;;;;;41.75;6.20;;;4.40;99.90;;;;;;5066657;28;20036;-74
2021/04/07 06:48:44;;;;;;;39.23;5.03;;;4.50;99.90;;;;;;5066947;28;20040;-74
2021/04/07 06:51:10;;;;;;;42.78;5.95;;;4.40;99.90;;;;;;5071404;28;20070;-73
2021/04/07 06:53:37;;;;;;;39.42;5.72;;;4.50;99.90;;;;;;5070669;28;20107;-74
2021/04/07 06:56:03;;;;;;;39.60;7.22;;;4.50;99.90;;;;;;5069104;28;20031;-73
2021/04/07 06:58:28;;;;;;;51.13;6.03;;;4.70;99.90;;;;;;5069459;28;20395;-73
2021/04/07 07:00:54;;;;;;;27.38;6.28;;;4.60;99.90;;;;;;5068190;28;20073;-72
2021/04/07 07:03:19;;;;;;;32.67;6.85;;;4.70;99.90;;;;;;5070269;28;20436;-72
2021/04/07 07:05:48;;;;;;;66.65;5.40;;;4.80;99.90;;;;;;5056418;28;20048;-72
2021/04/07 07:08:16;;;;;;;38.25;5.68;;;4.70;99.90;;;;;;5054533;28;20027;-72
2021/04/07 07:10:49;;;;;;;30.85;4.85;;;4.80;99.90;;;;;;5056288;28;20088;-72
2021/04/07 07:13:18;;;;;;;34.17;5.10;;;4.90;99.90;;;;;;5058052;28;20374;-72
2021/04/07 07:15:43;;;;;;;43.05;5.47;;;4.90;99.90;;;;;;5058540;28;20401;-72
2021/04/07 07:18:09;;;;;;;23.60;5.05;;;4.90;99.90;;;;;;5057935;28;20051;-72
2021/04/07 07:20:39;;;;;;;39.90;5.10;;;4.90;99.90;;;;;;5064423;28;20614;-73
2021/04/07 07:23:05;;;;;;;32.10;5.15;;;5.00;99.90;;;;;;5071814;28;20090;-72
2021/04/07 07:25:31;;;;;;;36.38;4.88;;;4.90;99.90;;;;;;5060619;28;20036;-73
2021/04/07 07:28:02;;;;;;;36.35;4.38;;;5.00;99.90;;;;;;5063222;28;20021;-73
2021/04/07 07:30:51;;;;;;;35.30;4.90;;;5.00;99.90;;;;;;5060781;28;20032;-74
2021/04/07 07:33:20;;;;;;;27.90;5.40;;;5.10;99.90;;;;;;5061162;28;20166;-72
2021/04/07 07:35:48;;;;;;;25.92;5.05;;;5.10;99.90;;;;;;5070458;28;20107;-73
2021/04/07 07:38:21;;;;;;;29.05;4.13;;;5.10;99.90;;;;;;5082985;28;20021;-73
2021/04/07 07:40:47;;;;;;;19.55;3.78;;;5.20;99.90;;;;;;5076414;28;20017;-72
2021/04/07 07:43:13;;;;;;;32.95;3.75;;;5.20;99.90;;;;;;5068498;28;20020;-73
2021/04/07 07:45:40;;;;;;;30.77;3.83;;;5.10;99.90;;;;;;5086020;28;20101;-73
2021/04/07 07:48:18;;;;;;;21.15;2.83;;;5.20;99.90;;;;;;5083335;28;20043;-72
2021/04/07 07:50:46;;;;;;;23.85;3.55;;;5.20;99.90;;;;;;5083380;28;20035;-73
2021/04/07 07:53:21;;;;;;;17.27;3.70;;;5.30;99.90;;;;;;5090106;28;20063;-72
2021/04/07 07:55:53;;;;;;;34.85;4.07;;;5.30;99.90;;;;;;5087519;28;20035;-72
2021/04/07 07:58:29;;;;;;;25.20;4.43;;;5.30;99.90;;;;;;5088309;28;20024;-71
2021/04/07 08:01:07;;;;;;;33.28;3.60;;;5.40;99.90;;;;;;5085616;28;20028;-72
2021/04/07 08:03:33;;;;;;;39.40;4.65;;;5.40;99.90;;;;;;5085223;28;20051;-72
2021/04/07 08:06:01;;;;;;;31.95;4.50;;;5.40;99.90;;;;;;5087180;28;20040;-71
2021/04/07 08:08:27;;;;;;;23.52;4.90;;;5.30;99.90;;;;;;5084695;28;21431;-71
2021/04/07 08:10:56;;;;;;;43.42;4.70;;;5.40;99.90;;;;;;5088201;28;20024;-71
2021/04/07 08:13:34;;;;;;;30.40;4.70;;;5.40;99.90;;;;;;5088447;28;20017;-72
2021/04/07 08:16:00;;;;;;;37.90;5.18;;;5.50;99.90;;;;;;5087597;28;20024;-71
2021/04/07 08:18:26;;;;;;;30.92;5.38;;;5.50;99.90;;;;;;5091454;28;20052;-71
2021/04/07 08:20:52;;;;;;;35.20;4.20;;;5.50;99.90;;;;;;5090104;28;20028;-71
2021/04/07 08:23:21;;;;;;;23.45;3.78;;;5.50;99.90;;;;;;5091128;28;20475;-72
2021/04/07 08:25:52;;;;;;;36.63;6.25;;;5.60;99.90;;;;;;5092371;28;20058;-70
2021/04/07 08:28:17;;;;;;;;;;;5.60;99.90;;;;;;5092285;28;20065;-71
2021/04/07 08:30:44;;;;;;;28.35;4.75;;;5.60;99.90;;;;;;5088871;28;19908;-72
2021/04/07 08:33:09;;;;;;;40.33;4.78;;;5.60;99.90;;;;;;5091100;28;20360;-72
2021/04/07 08:35:35;;;;;;;35.28;4.82;;;5.70;99.90;;;;;;5092591;28;20073;-70
2021/04/07 08:38:06;;;;;;;22.27;5.00;;;5.70;99.90;;;;;;5089643;28;20024;-71
2021/04/07 08:40:36;;;;;;;29.27;3.67;;;5.70;99.90;;;;;;5082910;28;20027;-72
2021/04/07 08:43:03;;;;;;;21.93;3.97;;;5.80;99.90;;;;;;5073728;28;20048;-73
2021/04/07 08:45:37;;;;;;;28.50;4.50;;;5.90;99.90;;;;;;5084228;28;20316;-72
2021/04/07 08:48:11;;;;;;;29.38;3.75;;;6.00;99.90;;;;;;5088568;28;20028;-72
2021/04/07 08:50:37;;;;;;;60.97;6.93;;;6.10;99.90;;;;;;5090340;28;20024;-70
2021/04/07 08:53:11;;;;;;;29.50;4.40;;;6.10;99.90;;;;;;5076031;28;20380;-70
2021/04/07 08:55:41;;;;;;;28.17;4.68;;;6.20;99.90;;;;;;5071180;28;20376;-70
2021/04/07 08:58:07;;;;;;;29.55;4.50;;;6.40;99.90;;;;;;5082605;28;20028;-73
2021/04/07 09:00:35;;;;;;;22.42;3.25;;;6.40;99.90;;;;;;5087481;28;20031;-71
2021/04/07 09:03:12;;;;;;;21.83;4.18;;;6.40;99.90;;;;;;5083919;28;20044;-70
2021/04/07 09:05:39;;;;;;;29.70;3.35;;;6.40;99.90;;;;;;5089278;28;20102;-71
2021/04/07 09:08:06;;;;;;;37.45;4.18;;;6.30;99.90;;;;;;5091657;28;20383;-71
2021/04/07 09:10:39;;;;;;;37.03;3.75;;;6.30;99.90;;;;;;5090949;28;20476;-71
2021/04/07 09:13:08;;;;;;;27.45;3.65;;;6.20;99.90;;;;;;5086717;28;20032;-72
2021/04/07 09:15:33;;;;;;;23.38;4.25;;;6.30;99.90;;;;;;5089554;28;20050;-72
2021/04/07 09:17:59;;;;;;;24.38;4.05;;;6.20;99.90;;;;;;5092029;28;20024;-71
2021/04/07 09:20:41;;;;;;;24.33;3.90;;;6.20;99.90;;;;;;5089875;28;20468;-71
2021/04/07 09:23:09;;;;;;;23.77;4.65;;;6.30;99.90;;;;;;5089271;28;20031;-72
2021/04/07 09:25:36;;;;;;;21.20;4.15;;;6.30;99.90;;;;;;5091988;28;20056;-71
2021/04/07 09:28:06;;;;;;;30.13;5.28;;;6.40;99.90;;;;;;5087955;28;20028;-71
2021/04/07 09:30:48;;;;;;;18.45;3.05;;;6.40;99.90;;;;;;5090513;28;20039;-71
2021/04/07 09:33:15;;;;;;;32.08;4.65;;;6.50;99.90;;;;;;5070675;28;20036;-72
2021/04/07 09:35:52;;;;;;;21.02;3.10;;;6.50;99.90;;;;;;5069886;28;20029;-72
2021/04/07 09:38:17;;;;;;;24.15;3.90;;;6.50;99.90;;;;;;5072628;28;20024;-72
2021/04/07 09:40:43;;;;;;;18.27;3.08;;;6.50;99.90;;;;;;5071944;28;20021;-72
2021/04/07 09:43:10;;;;;;;24.77;4.30;;;6.50;99.90;;;;;;5065801;28;20050;-71
2021/04/07 09:45:35;;;;;;;20.00;4.30;;;6.60;99.90;;;;;;5069398;28;20033;-71
2021/04/07 09:48:02;;;;;;;21.45;4.15;;;6.70;99.90;;;;;;5071091;28;20025;-72
2021/04/07 09:50:29;;;;;;;28.13;4.32;;;6.70;99.90;;;;;;5076193;28;20035;-71
2021/04/07 09:52:56;;;;;;;28.75;3.72;;;6.70;99.90;;;;;;5070133;28;20063;-71
2021/04/07 09:55:25;;;;;;;23.10;3.08;;;6.70;99.90;;;;;;5063404;28;20024;-71
2021/04/07 09:58:04;;;;;;;30.55;3.90;;;6.70;99.90;;;;;;5067209;28;20024;-71
2021/04/07 10:00:36;;;;;;;24.00;3.55;;;6.60;99.90;;;;;;5067530;28;20021;-71
2021/04/07 10:03:02;;;;;;;17.98;2.83;;;6.60;99.90;;;;;;5069391;28;20041;-71
2021/04/07 10:05:30;;;;;;;19.52;2.38;;;6.80;99.90;;;;;;5071639;28;20491;-71
2021/04/07 10:08:15;;;;;;;33.75;5.85;;;6.90;99.90;;;;;;5070023;28;20020;-72
2021/04/07 10:10:41;;;;;;;14.57;2.50;;;6.90;99.90;;;;;;5069942;28;20032;-72
2021/04/07 10:13:08;;;;;;;25.08;2.47;;;6.90;99.90;;;;;;5072233;28;20024;-71
2021/04/07 10:15:36;;;;;;;19.58;2.20;;;7.00;99.90;;;;;;5073367;28;20063;-71
2021/04/07 10:18:10;;;;;;;7.00;1.63;;;7.00;99.90;;;;;;5069960;28;20047;-71
2021/04/07 10:20:36;;;;;;;9.63;1.80;;;7.10;99.90;;;;;;5071012;28;20497;-71
2021/04/07 10:23:16;;;;;;;13.20;2.10;;;7.20;99.90;;;;;;5068244;28;20061;-71
2021/04/07 10:25:42;;;;;;;8.68;1.75;;;7.20;99.90;;;;;;5066854;28;20040;-71
2021/04/07 10:28:18;;;;;;;15.40;2.35;;;7.30;99.90;;;;;;5079465;28;20592;-72
2021/04/07 10:30:47;;;;;;;9.40;1.60;;;7.40;99.90;;;;;;5090740;28;20078;-72
2021/04/07 10:33:12;;;;;;;14.38;1.85;;;7.50;99.90;;;;;;5087176;28;20028;-72
2021/04/07 10:35:39;;;;;;;13.32;2.38;;;7.60;99.90;;;;;;5088566;28;20032;-71
2021/04/07 10:38:15;;;;;;;23.63;2.67;;;7.60;99.90;;;;;;5086360;28;20836;-72
2021/04/07 10:40:45;;;;;;;13.40;2.83;;;7.70;99.90;;;;;;5087303;28;20024;-72
2021/04/07 10:43:15;;;;;;;28.10;3.13;;;7.60;99.90;;;;;;5088602;28;20125;-72
2021/04/07 10:45:43;;;;;;;17.92;3.00;;;7.60;99.90;;;;;;5080412;28;20024;-72
2021/04/07 10:48:09;;;;;;;16.40;2.53;;;7.70;99.90;;;;;;5085830;28;20024;-72
2021/04/07 10:50:40;;;;;;;18.80;2.92;;;7.70;99.90;;;;;;5089602;28;20024;-72
2021/04/07 10:53:06;;;;;;;22.92;3.08;;;7.60;99.90;;;;;;5076851;28;20614;-71
2021/04/07 10:55:32;;;;;;;13.75;2.05;;;7.60;99.90;;;;;;5081401;28;20126;-71
2021/04/07 10:57:59;;;;;;;12.35;2.13;;;7.50;99.90;;;;;;5089502;28;20391;-72
2021/04/07 11:00:41;;;;;;;17.63;2.22;;;7.50;99.90;;;;;;5083516;28;20016;-72
2021/04/07 11:03:07;;;;;;;6.82;1.90;;;7.30;99.90;;;;;;5085154;28;20056;-72
2021/04/07 11:05:44;;;;;;;11.10;1.98;;;7.00;99.90;;;;;;5087546;28;20038;-72
2021/04/07 11:08:12;;;;;;;9.88;1.83;;;6.60;99.90;;;;;;5082432;28;20051;-71
2021/04/07 11:10:48;;;;;;;17.65;1.83;;;6.40;99.90;;;;;;5085455;28;20028;-71
2021/04/07 11:13:16;;;;;;;9.32;1.92;;;6.30;99.90;;;;;;5068195;28;20020;-71
2021/04/07 11:15:42;;;;;;;12.98;1.58;;;6.30;99.90;;;;;;5088912;28;20036;-71
2021/04/07 11:18:08;;;;;;;6.18;1.40;;;6.40;99.90;;;;;;5079604;28;20028;-71
2021/04/07 11:20:34;;;;;;;10.00;2.28;;;6.50;99.90;;;;;;5076284;28;20032;-71
2021/04/07 11:23:00;;;;;;;10.32;1.30;;;6.60;99.90;;;;;;5076676;28;20680;-71
2021/04/07 11:25:27;;;;;;;9.80;1.65;;;6.80;99.90;;;;;;5084074;28;20032;-72
2021/04/07 11:27:56;;;;;;;14.15;2.15;;;7.00;99.90;;;;;;5086276;28;20383;-72
2021/04/07 11:30:22;;;;;;;13.38;2.00;;;7.20;99.90;;;;;;5081195;28;20117;-72
2021/04/07 11:32:54;;;;;;;17.02;1.70;;;7.40;99.90;;;;;;5081530;28;20028;-72
2021/04/07 11:35:35;;;;;;;15.75;2.05;;;7.60;99.90;;;;;;5086415;28;20063;-71
2021/04/07 11:38:06;;;;;;;5.43;1.77;;;7.80;99.90;;;;;;5087995;28;20034;-71
2021/04/07 11:43:10;;;;;;;16.55;2.97;;;7.90;99.90;;;;;;5084811;28;20028;-71
2021/04/07 11:45:36;;;;;;;14.65;2.90;;;7.60;99.90;;;;;;5086590;28;20036;-72
2021/04/07 11:48:03;;;;;;;16.13;2.45;;;7.40;99.90;;;;;;5085973;28;20020;-72
2021/04/07 11:50:29;;;;;;;18.92;2.90;;;7.20;99.90;;;;;;5085459;28;20024;-72
2021/04/07 11:52:54;;;;;;;18.10;2.70;;;6.90;99.90;;;;;;5083291;28;20086;-72
2021/04/07 11:55:20;;;;;;;14.13;2.75;;;6.60;99.90;;;;;;5087199;28;20020;-72
2021/04/07 11:57:46;;;;;;;12.63;2.35;;;6.30;99.90;;;;;;5083519;28;20379;-73
2021/04/07 12:00:17;;;;;;;9.98;1.70;;;5.90;99.90;;;;;;5085586;28;20526;-73
2021/04/07 12:02:43;;;;;;;;;;;5.50;99.90;;;;;;5074631;28;20036;-74
2021/04/07 12:05:10;;;;;;;15.90;3.40;;;5.20;99.90;;;;;;5088485;28;19908;-73
2021/04/07 12:07:36;;;;;;;24.92;2.38;;;5.10;99.90;;;;;;5077793;28;20043;-73
2021/04/07 12:10:03;;;;;;;13.23;2.58;;;5.10;99.90;;;;;;5073881;28;20020;-72
2021/04/07 12:12:29;;;;;;;11.88;2.20;;;5.30;99.90;;;;;;5060907;28;20025;-73
2021/04/07 12:14:54;;;;;;;8.85;1.60;;;5.50;99.90;;;;;;5070897;28;20150;-72
2021/04/07 12:17:20;;;;;;;15.55;1.88;;;5.70;99.90;;;;;;5087388;28;20020;-72
2021/04/07 12:19:46;;;;;;;10.40;1.52;;;6.00;99.90;;;;;;5086123;28;20449;-72
2021/04/07 12:22:12;;;;;;;11.13;2.13;;;6.20;99.90;;;;;;5087876;28;20044;-73
2021/04/07 12:24:38;;;;;;;16.67;1.67;;;6.20;99.90;;;;;;5085832;28;20040;-73
2021/04/07 12:27:05;;;;;;;11.35;1.75;;;6.30;99.90;;;;;;5087042;28;20472;-73
2021/04/07 12:29:31;;;;;;;12.30;1.83;;;6.40;99.90;;;;;;5088059;28;20028;-73
2021/04/07 12:31:56;;;;;;;14.50;2.15;;;6.40;99.90;;;;;;5087424;28;20027;-72
2021/04/07 12:34:22;;;;;;;10.60;2.13;;;6.40;99.90;;;;;;5087146;28;20031;-73
2021/04/07 12:36:48;;;;;;;6.97;1.40;;;6.50;99.90;;;;;;5089216;28;20024;-71
2021/04/07 12:39:13;;;;;;;6.07;1.52;;;6.40;99.90;;;;;;5088314;28;20024;-72
2021/04/07 12:41:50;;;;;;;14.68;2.05;;;6.00;99.90;;;;;;5082323;28;20013;-73
2021/04/07 12:44:16;;;;;;;12.07;2.05;;;5.60;99.90;;;;;;5089725;28;20060;-73
2021/04/07 12:46:42;;;;;;;12.65;1.63;;;5.30;99.90;;;;;;5085429;28;20056;-73
2021/04/07 12:49:07;;;;;;;13.13;2.47;;;5.10;99.90;;;;;;5086616;28;20123;-73
2021/04/07 12:51:33;;;;;;;15.00;2.92;;;5.10;99.90;;;;;;5088264;28;20529;-73
2021/04/07 12:53:58;;;;;;;13.18;2.20;;;5.10;99.90;;;;;;5085032;28;20020;-73
2021/04/07 12:56:24;;;;;;;14.52;2.28;;;5.20;99.90;;;;;;5087731;28;20386;-72